createdAt,value
2018-09-07T00:00:09.894Z,43.23
2018-09-07T00:02:37.986Z,40.93
2018-09-07T00:05:07.451Z,42.37
2018-09-07T00:07:35.118Z,44.33
2018-09-07T00:10:02.992Z,44.30
2018-09-07T00:12:30.575Z,43.43
2018-09-07T00:14:58.730Z,43.00
2018-09-07T00:17:26.440Z,45.27
2018-09-07T00:19:54.170Z,43.40
2018-09-07T00:22:21.852Z,43.37
2018-09-07T00:24:49.543Z,41.17
2018-09-07T00:27:17.196Z,38.37
2018-09-07T00:29:44.975Z,42.93
2018-09-07T00:32:12.515Z,40.60
2018-09-07T00:34:40.844Z,42.40
2018-09-07T00:37:08.462Z,39.40
2018-09-07T00:39:36.092Z,40.67
2018-09-07T00:42:03.728Z,39.70
2018-09-07T00:44:31.507Z,40.63
2018-09-07T00:46:59.136Z,48.03
2018-09-07T00:49:26.820Z,41.27
2018-09-07T00:51:54.440Z,44.97
2018-09-07T00:54:22.824Z,47.20
2018-09-07T00:56:50.687Z,45.07
2018-09-07T00:59:18.519Z,43.17
2018-09-07T01:04:14.971Z,41.33
2018-09-07T01:06:42.638Z,43.90
2018-09-07T01:09:10.433Z,44.33
2018-09-07T01:11:38.083Z,47.13
2018-09-07T01:14:05.714Z,46.80
2018-09-07T01:16:33.584Z,49.90
2018-09-07T01:19:01.243Z,45.43
2018-09-07T01:21:28.936Z,47.73
2018-09-07T01:23:56.467Z,45.03
2018-09-07T01:26:24.471Z,47.10
2018-09-07T01:28:52.243Z,49.83
2018-09-07T01:31:20.427Z,47.40
2018-09-07T01:33:48.220Z,49.80
2018-09-07T01:36:15.939Z,43.47
2018-09-07T01:38:43.668Z,49.03
2018-09-07T01:41:11.270Z,47.13
2018-09-07T01:43:38.971Z,50.93
2018-09-07T01:46:07.087Z,54.47
2018-09-07T01:48:34.683Z,51.70
2018-09-07T01:51:06.178Z,48.97
2018-09-07T01:53:33.743Z,45.90
2018-09-07T01:56:01.386Z,46.83
2018-09-07T01:58:29.104Z,44.60
2018-09-07T02:00:56.924Z,54.53
2018-09-07T02:03:30.053Z,44.90
2018-09-07T02:05:57.855Z,45.80
2018-09-07T02:08:27.935Z,43.33
2018-09-07T02:10:57.523Z,44.10
2018-09-07T02:13:26.743Z,44.83
2018-09-07T02:15:54.477Z,43.80
2018-09-07T02:18:22.588Z,39.37
2018-09-07T02:20:50.855Z,42.10
2018-09-07T02:23:18.623Z,39.30
2018-09-07T02:25:46.338Z,37.10
2018-09-07T02:28:13.939Z,42.40
2018-09-07T02:30:42.048Z,40.37
2018-09-07T02:33:09.923Z,39.20
2018-09-07T02:35:37.683Z,41.77
2018-09-07T02:38:05.527Z,42.57
2018-09-07T02:40:33.312Z,39.20
2018-09-07T02:43:00.961Z,40.17
2018-09-07T02:45:29.280Z,40.57
2018-09-07T02:47:56.820Z,35.87
2018-09-07T02:50:24.707Z,40.40
2018-09-07T02:52:52.278Z,42.97
2018-09-07T02:55:19.923Z,39.50
2018-09-07T02:57:47.599Z,41.90
2018-09-07T03:00:15.248Z,41.57
2018-09-07T03:02:42.764Z,42.43
2018-09-07T03:05:10.496Z,39.27
2018-09-07T03:07:38.139Z,41.03
2018-09-07T03:10:05.924Z,44.43
2018-09-07T03:12:33.802Z,41.10
2018-09-07T03:15:01.635Z,39.33
2018-09-07T03:17:29.187Z,41.00
2018-09-07T03:19:57.492Z,44.37
2018-09-07T03:22:25.193Z,43.33
2018-09-07T03:24:52.922Z,43.00
2018-09-07T03:27:20.508Z,37.30
2018-09-07T03:29:48.151Z,39.23
2018-09-07T03:32:15.839Z,40.27
2018-09-07T03:34:43.811Z,38.63
2018-09-07T03:37:12.007Z,34.50
2018-09-07T03:39:40.176Z,33.17
2018-09-07T03:42:07.828Z,37.13
2018-09-07T03:44:35.492Z,34.10
2018-09-07T03:47:03.856Z,37.10
2018-09-07T03:49:31.495Z,37.20
2018-09-07T03:51:59.770Z,35.17
2018-09-07T03:54:27.279Z,35.03
2018-09-07T03:56:55.707Z,31.37
2018-09-07T03:59:23.552Z,31.80
2018-09-07T04:01:51.210Z,30.97
2018-09-07T04:04:18.781Z,33.53
2018-09-07T04:06:46.443Z,34.10
2018-09-07T04:09:14.391Z,35.97
2018-09-07T04:11:41.921Z,33.37
2018-09-07T04:14:09.904Z,33.50
2018-09-07T04:16:37.437Z,33.93
2018-09-07T04:19:05.070Z,36.87
2018-09-07T04:21:32.617Z,33.97
2018-09-07T04:24:00.167Z,35.50
2018-09-07T04:26:27.776Z,29.47
2018-09-07T04:28:55.350Z,32.57
2018-09-07T04:31:23.500Z,29.00
2018-09-07T04:33:51.087Z,29.03
2018-09-07T04:36:18.754Z,31.63
2018-09-07T04:38:46.423Z,29.10
2018-09-07T04:41:14.199Z,31.70
2018-09-07T04:43:41.880Z,33.73
2018-09-07T04:46:09.608Z,34.20
2018-09-07T04:48:37.646Z,36.33
2018-09-07T04:51:05.256Z,31.93
2018-09-07T04:53:33.083Z,33.43
2018-09-07T04:56:00.736Z,31.87
2018-09-07T04:58:28.439Z,36.43
2018-09-07T05:00:56.018Z,33.33
2018-09-07T05:03:23.680Z,32.20
2018-09-07T05:05:51.569Z,36.73
2018-09-07T05:08:19.088Z,34.37
2018-09-07T05:10:46.952Z,34.37
2018-09-07T05:13:14.817Z,30.83
2018-09-07T05:15:42.447Z,33.83
2018-09-07T05:18:11.029Z,32.80
2018-09-07T05:20:38.927Z,34.70
2018-09-07T05:23:06.915Z,34.60
2018-09-07T05:25:34.563Z,33.60
2018-09-07T05:28:02.197Z,33.00
2018-09-07T05:30:29.849Z,31.50
2018-09-07T05:32:57.637Z,35.53
2018-09-07T05:35:25.439Z,36.13
2018-09-07T05:37:54.063Z,35.03
2018-09-07T05:40:22.975Z,35.90
2018-09-07T05:42:52.271Z,32.67
2018-09-07T05:45:20.701Z,34.00
2018-09-07T05:47:48.988Z,31.97
2018-09-07T05:50:16.615Z,30.50
2018-09-07T05:52:44.415Z,32.30
2018-09-07T05:55:12.047Z,31.70
2018-09-07T05:57:39.962Z,32.17
2018-09-07T06:00:09.420Z,30.73
2018-09-07T06:02:36.984Z,33.00
2018-09-07T06:05:04.604Z,28.77
2018-09-07T06:07:32.676Z,30.60
2018-09-07T06:10:00.328Z,31.20
2018-09-07T06:12:28.539Z,31.23
2018-09-07T06:14:56.149Z,32.57
2018-09-07T06:17:23.707Z,30.87
2018-09-07T06:19:52.647Z,31.37
2018-09-07T06:22:20.382Z,30.73
2018-09-07T06:24:48.047Z,30.40
2018-09-07T06:27:15.814Z,30.83
2018-09-07T06:29:43.491Z,32.27
2018-09-07T06:32:11.309Z,32.27
2018-09-07T06:34:39.064Z,33.17
2018-09-07T06:37:06.732Z,35.70
2018-09-07T06:39:34.371Z,35.10
2018-09-07T06:42:01.976Z,31.33
2018-09-07T06:44:29.795Z,30.77
2018-09-07T06:46:57.465Z,32.27
2018-09-07T06:49:25.116Z,33.70
2018-09-07T06:51:58.227Z,33.13
2018-09-07T06:54:27.225Z,32.00
2018-09-07T06:56:54.977Z,35.23
2018-09-07T06:59:22.728Z,34.20
2018-09-07T07:01:50.309Z,33.80
2018-09-07T07:04:18.130Z,32.70
2018-09-07T07:06:45.887Z,32.20
2018-09-07T07:09:14.140Z,29.73
2018-09-07T07:11:41.807Z,34.60
2018-09-07T07:14:09.551Z,30.70
2018-09-07T07:16:37.477Z,31.37
2018-09-07T07:19:05.615Z,30.10
2018-09-07T07:21:33.369Z,31.70
2018-09-07T07:24:01.032Z,30.33
2018-09-07T07:26:28.843Z,31.47
2018-09-07T07:28:57.165Z,35.83
2018-09-07T07:31:24.823Z,32.97
2018-09-07T07:33:52.551Z,33.53
2018-09-07T07:36:20.263Z,31.70
2018-09-07T07:38:48.082Z,34.00
2018-09-07T07:41:15.978Z,30.10
2018-09-07T07:43:43.713Z,31.07
2018-09-07T07:46:11.843Z,31.63
2018-09-07T07:48:39.586Z,29.37
2018-09-07T07:51:07.667Z,30.27
2018-09-07T07:53:35.591Z,32.20
2018-09-07T07:56:03.183Z,33.57
2018-09-07T07:58:30.731Z,29.87
2018-09-07T08:00:58.371Z,32.57
2018-09-07T08:03:26.163Z,34.07
2018-09-07T08:05:53.983Z,31.10
2018-09-07T08:08:21.628Z,31.40
2018-09-07T08:10:49.179Z,31.10
2018-09-07T08:13:17.312Z,34.47
2018-09-07T08:15:45.515Z,34.63
2018-09-07T08:18:13.348Z,34.10
2018-09-07T08:20:41.186Z,31.73
2018-09-07T08:23:08.973Z,35.50
2018-09-07T08:25:36.711Z,31.07
2018-09-07T08:28:04.703Z,32.60
2018-09-07T08:30:32.546Z,32.90
2018-09-07T08:33:00.238Z,30.50
2018-09-07T08:35:27.720Z,32.77
2018-09-07T08:37:55.480Z,31.63
2018-09-07T08:40:24.094Z,33.97
2018-09-07T08:42:51.788Z,31.00
2018-09-07T08:45:19.475Z,35.23
2018-09-07T08:47:47.359Z,38.63
2018-09-07T08:50:15.147Z,33.23
2018-09-07T08:52:42.765Z,33.40
2018-09-07T08:55:10.500Z,38.00
2018-09-07T08:57:38.095Z,36.70
2018-09-07T09:00:05.983Z,38.60
2018-09-07T09:02:33.583Z,36.80
2018-09-07T09:05:03.539Z,35.27
2018-09-07T09:07:31.624Z,32.23
2018-09-07T09:09:59.170Z,27.97
2018-09-07T09:12:26.967Z,31.03
2018-09-07T09:14:54.713Z,27.97
2018-09-07T09:17:22.537Z,26.10
2018-09-07T09:19:50.275Z,25.77
2018-09-07T09:22:17.891Z,24.70
2018-09-07T09:24:45.567Z,22.60
2018-09-07T09:27:13.315Z,23.13
2018-09-07T09:29:40.963Z,24.13
2018-09-07T09:32:08.787Z,24.47
2018-09-07T09:34:36.608Z,24.27
2018-09-07T09:37:04.270Z,25.00
2018-09-07T09:39:32.544Z,23.57
2018-09-07T09:42:00.227Z,22.97
2018-09-07T09:44:27.948Z,23.57
2018-09-07T09:46:55.711Z,25.23
2018-09-07T09:49:23.395Z,24.70
2018-09-07T09:51:51.083Z,21.23
2018-09-07T09:54:18.619Z,27.17
2018-09-07T09:56:46.558Z,23.40
2018-09-07T09:59:14.172Z,24.40
2018-09-07T10:01:47.424Z,26.50
2018-09-07T10:04:46.244Z,24.50
2018-09-07T10:07:13.779Z,24.73
2018-09-07T10:09:41.984Z,29.97
2018-09-07T10:12:09.934Z,26.27
2018-09-07T10:14:37.540Z,26.63
2018-09-07T10:17:05.357Z,25.87
2018-09-07T10:19:32.935Z,26.60
2018-09-07T10:22:01.093Z,29.87
2018-09-07T10:24:28.827Z,27.87
2018-09-07T10:26:56.588Z,24.13
2018-09-07T10:29:24.395Z,25.77
2018-09-07T10:31:52.260Z,24.63
2018-09-07T10:34:19.795Z,26.90
2018-09-07T10:36:47.412Z,25.63
2018-09-07T10:39:15.076Z,29.33
2018-09-07T10:41:42.822Z,28.93
2018-09-07T10:44:10.575Z,27.57
2018-09-07T10:46:38.291Z,28.57
2018-09-07T10:49:06.027Z,32.33
2018-09-07T10:51:33.709Z,30.40
2018-09-07T10:54:01.320Z,34.70
2018-09-07T10:56:28.879Z,28.33
2018-09-07T10:58:56.612Z,23.67
2018-09-07T11:01:24.655Z,22.27
2018-09-07T11:03:52.395Z,25.10
2018-09-07T11:06:20.312Z,27.50
2018-09-07T11:08:47.994Z,27.20
2018-09-07T11:11:15.654Z,27.60
2018-09-07T11:13:43.327Z,32.30
2018-09-07T11:16:11.138Z,29.83
2018-09-07T11:18:38.815Z,28.97
2018-09-07T11:21:06.644Z,28.53
2018-09-07T11:23:34.331Z,29.93
2018-09-07T11:26:01.996Z,32.57
2018-09-07T11:28:29.790Z,35.10
2018-09-07T11:30:57.444Z,31.10
2018-09-07T11:33:25.097Z,30.30
2018-09-07T11:35:52.699Z,31.97
2018-09-07T11:38:20.324Z,31.70
2018-09-07T11:40:48.100Z,29.20
2018-09-07T11:43:15.639Z,30.37
2018-09-07T11:45:44.199Z,29.00
2018-09-07T11:48:11.800Z,31.40
2018-09-07T11:50:39.611Z,31.57
2018-09-07T11:53:07.527Z,27.40
2018-09-07T11:55:35.912Z,28.87
2018-09-07T11:58:03.705Z,27.10
2018-09-07T12:00:31.507Z,25.67
2018-09-07T12:02:59.641Z,22.77
2018-09-07T12:05:27.385Z,24.73
2018-09-07T12:07:55.135Z,25.50
2018-09-07T12:10:22.836Z,23.97
2018-09-07T12:12:51.152Z,24.80
2018-09-07T12:15:18.700Z,24.73
2018-09-07T12:17:46.268Z,22.90
2018-09-07T12:20:13.971Z,23.80
2018-09-07T12:22:42.474Z,22.17
2018-09-07T12:25:10.593Z,19.90
2018-09-07T12:27:38.428Z,20.23
2018-09-07T12:30:06.661Z,20.73
2018-09-07T12:32:34.388Z,20.43
2018-09-07T12:35:02.964Z,19.20
2018-09-07T12:37:30.795Z,18.67
2018-09-07T12:39:59.105Z,19.63
2018-09-07T12:42:26.770Z,18.87
2018-09-07T12:44:55.107Z,18.20
2018-09-07T12:47:22.820Z,17.90
2018-09-07T12:49:51.100Z,17.73
2018-09-07T12:52:19.672Z,16.27
2018-09-07T12:54:47.452Z,14.70
2018-09-07T12:57:15.083Z,17.10
2018-09-07T12:59:42.800Z,19.40
2018-09-07T13:02:10.351Z,18.50
2018-09-07T13:04:38.096Z,20.37
2018-09-07T13:07:06.072Z,20.40
2018-09-07T13:09:33.903Z,19.00
2018-09-07T13:12:01.769Z,18.77
2018-09-07T13:14:29.504Z,17.93
2018-09-07T13:16:57.051Z,18.20
2018-09-07T13:19:24.875Z,16.60
2018-09-07T13:21:53.407Z,18.67
2018-09-07T13:24:21.161Z,17.17
2018-09-07T13:26:48.783Z,17.87
2018-09-07T13:29:16.504Z,18.13
2018-09-07T13:31:44.172Z,18.37
2018-09-07T13:34:11.747Z,15.80
2018-09-07T13:36:39.536Z,12.47
2018-09-07T13:39:09.003Z,13.10
2018-09-07T13:41:36.695Z,13.60
2018-09-07T13:44:04.395Z,12.97
2018-09-07T13:46:32.243Z,10.97
2018-09-07T13:49:00.032Z,11.27
2018-09-07T13:51:27.782Z,10.37
2018-09-07T13:53:55.492Z,9.97
2018-09-07T13:56:23.336Z,9.90
2018-09-07T13:58:50.827Z,10.90
2018-09-07T14:01:18.442Z,10.20
2018-09-07T14:03:46.092Z,9.03
2018-09-07T14:06:13.907Z,9.30
2018-09-07T14:08:41.468Z,7.67
2018-09-07T14:11:09.007Z,8.13
2018-09-07T14:13:36.647Z,7.30
2018-09-07T14:16:04.565Z,7.10
2018-09-07T14:18:32.035Z,8.47
2018-09-07T14:20:59.839Z,8.50
2018-09-07T14:23:27.531Z,8.37
2018-09-07T14:25:56.110Z,7.70
2018-09-07T14:28:25.617Z,7.43
2018-09-07T14:30:53.302Z,7.37
2018-09-07T14:33:20.917Z,7.10
2018-09-07T14:35:48.451Z,6.77
2018-09-07T14:38:16.908Z,6.80
2018-09-07T14:40:44.963Z,6.70
2018-09-07T14:43:12.692Z,5.60
2018-09-07T14:45:40.331Z,6.20
2018-09-07T14:48:08.324Z,6.17
2018-09-07T14:50:36.057Z,6.43
2018-09-07T14:53:04.359Z,5.37
2018-09-07T14:55:32.708Z,5.90
2018-09-07T14:58:01.927Z,5.23
2018-09-07T15:00:29.726Z,4.93
2018-09-07T15:02:57.340Z,5.40
2018-09-07T15:05:24.928Z,4.40
2018-09-07T15:07:52.570Z,4.60
2018-09-07T15:10:20.260Z,4.80
2018-09-07T15:12:48.009Z,4.60
2018-09-07T15:15:15.696Z,4.30
2018-09-07T15:17:43.259Z,4.47
2018-09-07T15:20:10.981Z,4.40
2018-09-07T15:22:38.607Z,4.20
2018-09-07T15:25:06.396Z,4.20
2018-09-07T15:27:34.008Z,3.77
2018-09-07T15:30:01.728Z,3.83
2018-09-07T15:32:29.535Z,3.77
2018-09-07T15:34:57.240Z,4.03
2018-09-07T15:37:24.972Z,5.20
2018-09-07T15:39:52.556Z,4.50
2018-09-07T15:42:20.256Z,4.20
2018-09-07T15:44:47.912Z,6.00
2018-09-07T15:47:15.511Z,4.03
2018-09-07T15:49:43.208Z,5.17
2018-09-07T15:52:10.891Z,5.60
2018-09-07T15:54:38.512Z,5.17
2018-09-07T15:57:06.280Z,5.70
2018-09-07T15:59:34.216Z,5.33
2018-09-07T16:02:02.010Z,6.07
2018-09-07T16:04:29.636Z,5.80
2018-09-07T16:06:57.547Z,6.30
2018-09-07T16:09:25.367Z,5.10
2018-09-07T16:11:53.045Z,5.67
2018-09-07T16:14:20.702Z,4.50
2018-09-07T16:16:48.399Z,4.57
2018-09-07T16:19:16.143Z,4.30
2018-09-07T16:21:43.761Z,5.60
2018-09-07T16:24:11.380Z,4.50
2018-09-07T16:26:39.137Z,3.90
2018-09-07T16:29:06.896Z,3.70
2018-09-07T16:31:34.634Z,4.67
2018-09-07T16:34:03.515Z,3.90
2018-09-07T16:36:31.155Z,3.20
2018-09-07T16:38:58.853Z,3.40
2018-09-07T16:41:26.432Z,3.83
2018-09-07T16:43:54.035Z,3.90
2018-09-07T16:46:21.756Z,5.77
2018-09-07T16:48:49.501Z,3.97
2018-09-07T16:51:17.195Z,4.10
2018-09-07T16:53:44.983Z,3.53
2018-09-07T16:56:12.692Z,3.63
2018-09-07T16:58:40.572Z,4.40
2018-09-07T17:01:08.148Z,7.17
2018-09-07T17:03:35.727Z,3.23
2018-09-07T17:06:03.336Z,3.00
2018-09-07T17:08:31.095Z,3.33
2018-09-07T17:10:58.868Z,3.10
2018-09-07T17:13:26.436Z,2.70
2018-09-07T17:15:54.139Z,2.80
2018-09-07T17:18:21.908Z,3.20
2018-09-07T17:20:49.532Z,2.93
2018-09-07T17:23:17.135Z,2.60
2018-09-07T17:25:44.762Z,3.07
2018-09-07T17:28:12.380Z,3.10
2018-09-07T17:30:40.136Z,3.33
2018-09-07T17:33:08.604Z,3.97
2018-09-07T17:35:36.500Z,2.73
2018-09-07T17:38:04.057Z,2.73
2018-09-07T17:40:31.627Z,3.00
2018-09-07T17:42:59.592Z,2.17
2018-09-07T17:45:27.327Z,3.83
2018-09-07T17:47:55.550Z,2.80
2018-09-07T17:50:23.311Z,2.83
2018-09-07T17:52:50.851Z,2.67
2018-09-07T17:55:18.433Z,2.60
2018-09-07T17:57:46.738Z,3.20
2018-09-07T18:00:14.324Z,2.93
2018-09-07T18:02:41.955Z,3.00
2018-09-07T18:05:14.097Z,3.20
2018-09-07T18:07:41.644Z,3.93
2018-09-07T18:10:09.371Z,3.27
2018-09-07T18:12:37.104Z,3.30
2018-09-07T18:15:04.807Z,3.47
2018-09-07T18:17:32.407Z,3.00
2018-09-07T18:20:00.347Z,3.23
2018-09-07T18:22:27.919Z,3.83
2018-09-07T18:24:56.119Z,3.70
2018-09-07T18:27:23.771Z,3.57
2018-09-07T18:29:51.451Z,3.13
2018-09-07T18:32:19.051Z,3.27
2018-09-07T18:34:47.007Z,3.90
2018-09-07T18:37:14.567Z,4.50
2018-09-07T18:39:42.172Z,3.40
2018-09-07T18:42:09.708Z,4.00
2018-09-07T18:44:37.451Z,3.90
2018-09-07T18:47:05.115Z,3.90
2018-09-07T18:49:32.735Z,3.60
2018-09-07T18:52:00.401Z,4.30
2018-09-07T18:54:28.105Z,4.83
2018-09-07T18:56:55.680Z,3.43
2018-09-07T18:59:23.555Z,3.93
2018-09-07T19:01:51.150Z,3.90
2018-09-07T19:04:18.947Z,3.87
2018-09-07T19:06:46.624Z,4.00
2018-09-07T19:09:15.074Z,3.90
2018-09-07T19:11:42.711Z,3.67
2018-09-07T19:14:10.467Z,3.97
2018-09-07T19:16:38.000Z,4.67
2018-09-07T19:19:05.635Z,4.00
2018-09-07T19:21:33.374Z,4.00
2018-09-07T19:24:01.402Z,4.03
2018-09-07T19:26:29.015Z,4.23
2018-09-07T19:28:56.635Z,5.00
2018-09-07T19:31:24.159Z,4.60
2018-09-07T19:33:52.177Z,4.50
2018-09-07T19:36:19.986Z,5.10
2018-09-07T19:38:47.695Z,4.33
2018-09-07T19:41:15.398Z,6.80
2018-09-07T19:43:43.155Z,5.00
2018-09-07T19:46:10.940Z,7.70
2018-09-07T19:48:38.731Z,8.60
2018-09-07T19:51:06.426Z,8.63
2018-09-07T19:53:34.347Z,8.53
2018-09-07T19:56:02.192Z,7.97
2018-09-07T19:58:29.788Z,9.00
2018-09-07T20:00:57.516Z,7.77
2018-09-07T20:03:25.191Z,10.03
2018-09-07T20:05:53.731Z,4.93
2018-09-07T20:08:21.435Z,6.30
2018-09-07T20:10:49.176Z,6.73
2018-09-07T20:13:16.927Z,9.30
2018-09-07T20:15:44.628Z,5.20
2018-09-07T20:18:13.545Z,9.30
2018-09-07T20:20:41.565Z,4.63
2018-09-07T20:23:09.372Z,4.97
2018-09-07T20:25:37.243Z,5.43
2018-09-07T20:28:05.247Z,5.80
2018-09-07T20:30:33.122Z,5.93
2018-09-07T20:33:00.672Z,5.80
2018-09-07T20:35:28.536Z,6.10
2018-09-07T20:37:56.347Z,8.03
2018-09-07T20:40:24.299Z,5.57
2018-09-07T20:42:52.092Z,6.13
2018-09-07T20:45:19.961Z,11.33
2018-09-07T20:47:47.797Z,6.47
2018-09-07T20:50:15.900Z,5.87
2018-09-07T20:52:43.750Z,5.27
2018-09-07T20:55:11.472Z,4.97
2018-09-07T20:57:39.152Z,5.07
2018-09-07T21:00:07.625Z,5.43
2018-09-07T21:02:35.336Z,5.53
2018-09-07T21:05:03.087Z,5.10
2018-09-07T21:07:30.981Z,4.50
2018-09-07T21:09:58.592Z,7.97
2018-09-07T21:12:26.415Z,5.47
2018-09-07T21:14:54.133Z,5.57
2018-09-07T21:17:22.060Z,4.93
2018-09-07T21:19:49.763Z,4.97
2018-09-07T21:22:17.635Z,5.70
2018-09-07T21:24:45.188Z,5.13
2018-09-07T21:27:12.854Z,5.27
2018-09-07T21:29:40.552Z,8.50
2018-09-07T21:32:08.423Z,5.17
2018-09-07T21:34:36.296Z,5.00
2018-09-07T21:37:04.305Z,5.27
2018-09-07T21:39:32.692Z,5.97
2018-09-07T21:42:00.445Z,6.20
2018-09-07T21:44:28.253Z,6.23
2018-09-07T21:46:55.978Z,5.90
2018-09-07T21:49:23.495Z,5.07
2018-09-07T21:51:51.174Z,4.50
2018-09-07T21:54:18.936Z,5.13
2018-09-07T21:56:47.302Z,5.20
2018-09-07T21:59:14.917Z,6.07
2018-09-07T22:01:43.303Z,5.70
2018-09-07T22:04:10.892Z,5.70
2018-09-07T22:06:44.216Z,5.20
2018-09-07T22:09:11.943Z,5.20
2018-09-07T22:11:39.572Z,6.13
2018-09-07T22:14:07.604Z,5.37
2018-09-07T22:16:35.307Z,5.17
2018-09-07T22:19:03.131Z,5.83
2018-09-07T22:21:30.894Z,4.37
2018-09-07T22:23:58.687Z,5.03
2018-09-07T22:26:26.302Z,5.13
2018-09-07T22:28:54.219Z,4.83
2018-09-07T22:31:21.903Z,4.47
2018-09-07T22:33:49.610Z,4.53
2018-09-07T22:36:17.254Z,5.07
2018-09-07T22:38:45.851Z,4.03
2018-09-07T22:41:13.512Z,6.77
2018-09-07T22:43:41.284Z,4.47
2018-09-07T22:46:09.095Z,6.40
2018-09-07T22:48:36.963Z,5.00
2018-09-07T22:51:04.911Z,5.70
2018-09-07T22:53:32.795Z,4.90
2018-09-07T22:56:00.407Z,5.70
2018-09-07T22:58:28.938Z,5.20
2018-09-07T23:00:56.607Z,6.10
2018-09-07T23:03:24.418Z,5.97
2018-09-07T23:05:56.622Z,5.00
2018-09-07T23:08:24.676Z,4.77
2018-09-07T23:10:52.822Z,4.40
2018-09-07T23:13:20.495Z,5.30
2018-09-07T23:15:48.905Z,4.83
2018-09-07T23:18:16.450Z,5.30
2018-09-07T23:20:44.149Z,4.67
2018-09-07T23:23:11.988Z,4.37
2018-09-07T23:25:40.611Z,5.10
2018-09-07T23:28:08.296Z,6.60
2018-09-07T23:30:35.994Z,4.77
2018-09-07T23:33:03.625Z,5.43
2018-09-07T23:35:31.339Z,4.87
2018-09-07T23:37:59.136Z,5.00
2018-09-07T23:40:27.263Z,5.20
2018-09-07T23:42:54.923Z,5.70
2018-09-07T23:45:22.588Z,5.10
2018-09-07T23:47:50.397Z,5.13
2018-09-07T23:50:19.555Z,4.90
2018-09-07T23:52:47.341Z,4.77
2018-09-07T23:55:15.078Z,4.87
2018-09-07T23:57:43.374Z,4.87
